Time;durP1;ratioP1;P1;durP2;ratioP2;P2;SDS_P1;SDS_P2;PMS_P1;PMS_P2;Temp;Humidity;BMP_temperature;BMP_pressure;BME280_temperature;BME280_humidity;BME280_pressure;Samples;Min_cycle;Max_cycle;Signal;HPM_P1;HPM_P2
2023/01/18 03:42:20;;;;;;;17.80;9.90;;;;;;;6.52;85.11;99028.22;80084;1299;3013123;-66
2023/01/18 03:45:13;;;;;;;18.40;10.70;;;;;;;6.31;85.35;99028.98;77829;1304;3053601;-65
2023/01/18 03:47:41;;;;;;;18.70;9.90;;;;;;;6.09;86.74;99029.16;78025;1301;3050571;-66
2023/01/18 03:50:08;;;;;;;12.80;8.10;;;;;;;5.98;87.50;99035.56;79256;1304;3013560;-66
2023/01/18 03:52:42;;;;;;;17.00;8.70;;;;;;;6.24;87.33;99033.79;79238;1300;3011912;-65
2023/01/18 03:55:15;;;;;;;16.10;9.20;;;;;;;6.85;84.77;99031.59;76761;1299;3050396;-65
2023/01/18 03:57:56;;;;;;;15.60;8.80;;;;;;;6.86;83.69;99032.08;79497;1297;3011731;-65
2023/01/18 04:00:24;;;;;;;20.60;10.40;;;;;;;6.61;83.93;99038.23;78252;1298;3048914;-66
2023/01/18 04:02:52;;;;;;;19.60;9.60;;;;;;;6.39;85.00;99044.02;79442;1299;3014000;-66
2023/01/18 04:05:18;;;;;;;21.20;10.40;;;;;;;6.24;85.56;99044.09;79364;1301;3012326;-66
2023/01/18 04:07:46;;;;;;;19.00;9.80;;;;;;;6.05;86.06;99043.45;78037;1301;3052162;-66
2023/01/18 04:10:14;;;;;;;16.60;7.70;;;;;;;5.94;86.98;99041.16;79339;1297;3012031;-67
2023/01/18 04:12:40;;;;;;;14.70;7.70;;;;;;;6.47;85.92;99041.36;79327;1297;3012057;-66
2023/01/18 04:15:09;;;;;;;16.40;9.00;;;;;;;6.87;83.24;99040.88;78178;1298;3048896;-66
2023/01/18 04:17:36;;;;;;;16.00;9.00;;;;;;;7.01;82.35;99042.61;79378;1299;3013437;-66
2023/01/18 04:20:03;;;;;;;20.00;9.10;;;;;;;6.75;82.80;99043.59;79346;1297;3012790;-66
2023/01/18 04:22:31;;;;;;;16.50;9.40;;;;;;;6.61;83.27;99046.24;78277;1301;3052491;-66
2023/01/18 04:24:58;;;;;;;21.20;11.20;;;;;;;6.36;83.99;99048.02;79383;1301;3012993;-66
2023/01/18 04:27:24;;;;;;;17.30;11.00;;;;;;;6.23;84.65;99043.28;79383;1301;3013010;-65
2023/01/18 04:29:52;;;;;;;21.70;11.50;;;;;;;6.10;84.90;99046.52;78375;1294;3026081;-67
2023/01/18 04:32:18;;;;;;;11.90;6.90;;;;;;;5.98;86.17;99052.63;79646;1298;3012715;-65
2023/01/18 04:34:45;;;;;;;14.90;8.10;;;;;;;6.36;85.25;99044.67;79598;1295;3013618;-65
2023/01/18 04:37:16;;;;;;;17.80;8.40;;;;;;;6.89;82.58;99048.64;78389;1295;3026766;-66
2023/01/18 04:39:42;;;;;;;18.50;9.40;;;;;;;6.73;82.34;99046.33;79618;1295;3013427;-66
2023/01/18 04:42:12;;;;;;;15.40;9.60;;;;;;;6.57;82.94;99048.34;79099;1298;3011838;-66
2023/01/18 04:44:38;;;;;;;16.10;8.80;;;;;;;6.43;83.19;99050.94;79675;1295;3013612;-66
2023/01/18 04:47:04;;;;;;;22.60;10.50;;;;;;;6.37;83.35;99054.91;79555;1296;3011675;-66
2023/01/18 04:49:33;;;;;;;17.20;9.90;;;;;;;6.01;84.44;99051.62;78411;1298;3029113;-66
2023/01/18 04:52:00;;;;;;;17.20;10.10;;;;;;;6.00;85.04;99057.73;79600;1298;3013545;-66
2023/01/18 04:54:29;;;;;;;9.80;6.70;;;;;;;5.82;85.56;99055.27;79607;1294;3013546;-65
2023/01/18 04:56:57;;;;;;;18.30;8.90;;;;;;;6.29;84.48;99057.56;78415;1298;3051718;-66
2023/01/18 04:59:23;;;;;;;16.20;9.20;;;;;;;6.70;82.51;99052.02;79673;1296;3018193;-66
2023/01/18 05:01:51;;;;;;;17.80;9.10;;;;;;;6.80;81.21;99053.08;79555;1296;3011594;-66
2023/01/18 05:04:19;;;;;;;19.60;10.40;;;;;;;6.47;82.15;99055.80;78303;1296;3026035;-66
2023/01/18 05:06:48;;;;;;;16.90;9.50;;;;;;;6.44;82.24;99055.98;79599;1298;3018618;-66
2023/01/18 05:09:18;;;;;;;20.10;9.50;;;;;;;6.30;82.58;99056.98;79015;1295;3012897;-66
2023/01/18 05:11:46;;;;;;;18.60;9.90;;;;;;;6.10;83.30;99069.98;79521;1295;3012685;-66
2023/01/18 05:14:13;;;;;;;20.60;10.50;;;;;;;5.97;83.75;99069.70;79506;1300;3011997;-66
2023/01/18 05:16:41;;;;;;;11.40;6.80;;;;;;;5.78;85.04;99068.52;78267;1295;3048696;-66
2023/01/18 05:19:07;;;;;;;13.20;8.20;;;;;;;6.25;84.15;99072.56;79546;1300;3012794;-66
2023/01/18 05:21:34;;;;;;;17.60;8.60;;;;;;;6.70;81.81;99074.68;79511;1295;3013689;-65
2023/01/18 05:24:02;;;;;;;15.70;9.90;;;;;;;6.61;81.44;99073.07;78274;1300;3025171;-66
2023/01/18 05:26:29;;;;;;;17.00;10.20;;;;;;;6.52;81.57;99076.76;79511;1295;3014524;-66
2023/01/18 05:28:56;;;;;;;20.50;10.00;;;;;;;6.30;81.99;99078.20;79467;1295;3011893;-66
2023/01/18 05:31:24;;;;;;;16.20;10.30;;;;;;;6.01;83.20;99084.45;78267;1300;3049418;-65
2023/01/18 05:33:51;;;;;;;20.70;11.20;;;;;;;5.99;83.63;99083.38;79532;1300;3013262;-65
2023/01/18 05:36:17;;;;;;;19.50;10.50;;;;;;;5.77;84.40;99084.00;79546;1295;3011641;-66
2023/01/18 05:38:46;;;;;;;14.40;7.30;;;;;;;5.70;85.21;99090.42;78314;1299;3052060;-66
2023/01/18 05:41:12;;;;;;;14.30;7.90;;;;;;;6.08;83.94;99089.54;79530;1295;3015038;-67
2023/01/18 05:43:39;;;;;;;15.90;8.70;;;;;;;6.54;82.26;99093.19;79495;1299;3011449;-66
2023/01/18 05:46:09;;;;;;;18.30;9.20;;;;;;;6.64;81.05;99096.89;78248;1295;3025403;-66
2023/01/18 05:48:36;;;;;;;17.20;10.40;;;;;;;6.68;80.70;99099.80;79536;1296;3013063;-66
2023/01/18 05:51:09;;;;;;;19.60;10.60;;;;;;;6.46;80.86;99105.96;79008;1298;3011538;-66
2023/01/18 05:53:36;;;;;;;17.30;10.20;;;;;;;6.16;82.05;99113.01;79496;1299;3012373;-66
2023/01/18 05:56:05;;;;;;;19.10;10.20;;;;;;;5.99;82.72;99104.40;78268;1300;3030771;-66
2023/01/18 05:58:31;;;;;;;22.20;11.00;;;;;;;5.89;83.38;99108.65;79593;1298;3012633;-65
2023/01/18 06:00:58;;;;;;;22.00;12.00;;;;;;;5.82;83.62;99118.55;79526;1298;3011730;-66
2023/01/18 06:03:27;;;;;;;14.80;7.50;;;;;;;5.87;83.66;99118.66;78282;1295;3048278;-66
2023/01/18 06:05:53;;;;;;;14.20;7.50;;;;;;;6.44;82.29;99117.02;79613;1297;3013145;-66
2023/01/18 06:08:20;;;;;;;16.90;8.70;;;;;;;6.80;79.99;99111.42;79551;1299;3011563;-65
2023/01/18 06:10:55;;;;;;;14.30;8.30;;;;;;;6.84;79.57;99111.55;78177;1301;3026643;-66
2023/01/18 06:13:26;;;;;;;18.20;10.40;;;;;;;6.87;79.09;99109.87;78332;1296;3068830;-65
2023/01/18 06:15:54;;;;;;;18.80;9.00;;;;;;;6.61;79.86;99102.43;79605;1301;3011638;-66
2023/01/18 06:18:24;;;;;;;16.30;8.90;;;;;;;6.45;80.20;99104.60;78996;1295;3013487;-65
2023/01/18 06:20:54;;;;;;;17.00;9.70;;;;;;;6.30;80.56;99110.56;79523;1296;3013259;-66
2023/01/18 06:23:23;;;;;;;18.30;10.10;;;;;;;6.16;81.33;99107.77;78255;1295;3050793;-67
2023/01/18 06:25:50;;;;;;;20.50;10.10;;;;;;;6.16;81.30;99111.27;79609;1300;3013699;-65
2023/01/18 06:28:16;;;;;;;18.10;10.30;;;;;;;6.07;81.65;99104.38;79471;1300;3011948;-66
2023/01/18 06:30:46;;;;;;;15.20;8.10;;;;;;;5.92;82.45;99096.20;78310;1295;3052325;-66
2023/01/18 06:33:14;;;;;;;13.60;6.70;;;;;;;6.59;80.87;99092.61;79569;1298;3011703;-66
2023/01/18 06:35:42;;;;;;;16.80;9.10;;;;;;;7.00;78.48;99090.17;79515;1300;3014311;-66
2023/01/18 06:38:09;;;;;;;14.00;9.40;;;;;;;7.03;77.93;99094.92;78339;1298;3050100;-66
2023/01/18 06:40:36;;;;;;;14.80;9.50;;;;;;;6.76;78.65;99091.95;79512;1301;3013176;-66
2023/01/18 06:43:03;;;;;;;17.10;9.00;;;;;;;6.56;79.63;99101.65;79546;1295;3011428;-65
2023/01/18 06:45:31;;;;;;;17.80;9.60;;;;;;;6.53;79.42;99109.29;78280;1298;3026519;-66
2023/01/18 06:47:57;;;;;;;16.70;10.10;;;;;;;6.30;80.40;99103.25;79559;1299;3013773;-66
2023/01/18 06:50:24;;;;;;;20.10;10.70;;;;;;;6.20;80.85;99102.34;79584;1298;3011861;-66
2023/01/18 06:52:54;;;;;;;19.30;9.90;;;;;;;6.09;81.44;99103.39;78229;1299;3049176;-65
2023/01/18 06:55:20;;;;;;;18.20;9.50;;;;;;;6.05;81.69;99104.45;79424;1299;3011565;-66
2023/01/18 06:57:47;;;;;;;16.00;7.50;;;;;;;6.01;81.99;99103.27;79381;1300;3011938;-66
2023/01/18 07:00:18;;;;;;;13.40;7.70;;;;;;;6.56;80.53;99100.23;78192;1299;3050596;-66
2023/01/18 07:02:45;;;;;;;16.60;8.20;;;;;;;7.15;78.13;99105.23;79677;1295;3013455;-65
2023/01/18 07:05:11;;;;;;;19.60;10.00;;;;;;;7.05;77.72;99104.05;79588;1295;3011933;-66
2023/01/18 07:07:39;;;;;;;19.80;9.90;;;;;;;6.88;77.75;99105.09;78313;1301;3026629;-66
2023/01/18 07:10:06;;;;;;;18.20;9.50;;;;;;;6.72;78.41;99104.70;79559;1300;3018617;-67
2023/01/18 07:12:33;;;;;;;16.80;9.70;;;;;;;6.63;78.73;99106.33;79606;1300;3013268;-66
2023/01/18 07:15:01;;;;;;;17.10;9.60;;;;;;;6.37;79.60;99100.15;78342;1299;3049660;-67
2023/01/18 07:17:28;;;;;;;19.80;10.10;;;;;;;6.11;80.74;99107.98;79671;1295;3013714;-65
2023/01/18 07:19:55;;;;;;;19.60;10.40;;;;;;;6.06;80.93;99104.59;79651;1296;3011526;-66
2023/01/18 07:22:22;;;;;;;19.40;10.80;;;;;;;6.09;80.99;99104.95;78349;1295;3048546;-66
2023/01/18 07:24:49;;;;;;;14.90;7.20;;;;;;;6.02;81.47;99103.58;79738;1300;3011784;-66
2023/01/18 07:27:16;;;;;;;13.80;8.20;;;;;;;6.48;80.38;99101.52;79618;1298;3013114;-66
2023/01/18 07:29:44;;;;;;;17.30;8.40;;;;;;;6.94;78.30;99102.15;78460;1301;3025732;-66
2023/01/18 07:32:10;;;;;;;17.30;9.70;;;;;;;7.02;77.34;99099.99;79566;1295;3013594;-66
2023/01/18 07:34:37;;;;;;;17.20;9.10;;;;;;;6.93;77.39;99096.84;79758;1300;3011652;-66
2023/01/18 07:37:05;;;;;;;20.80;10.20;;;;;;;6.87;77.49;99102.85;78326;1298;3026360;-66
2023/01/18 07:39:35;;;;;;;19.60;9.60;;;;;;;6.77;77.72;99099.70;79640;1295;3012848;-65
2023/01/18 07:42:03;;;;;;;20.40;9.80;;;;;;;6.59;78.62;99100.98;78504;1297;3026528;-66
2023/01/18 07:44:31;;;;;;;16.70;8.50;;;;;;;6.50;78.90;99105.24;79781;1295;3013322;-65
2023/01/18 07:46:57;;;;;;;17.00;9.90;;;;;;;6.45;79.16;99102.37;79438;1294;3013263;-65
2023/01/18 07:49:26;;;;;;;17.40;9.90;;;;;;;6.39;79.36;99107.14;78843;1294;3048685;-65
2023/01/18 07:51:53;;;;;;;18.60;9.70;;;;;;;6.30;79.76;99108.66;79782;1295;3013428;-66
2023/01/18 07:54:19;;;;;;;11.90;6.50;;;;;;;6.35;79.65;99111.03;79550;1300;3011695;-66
2023/01/18 07:56:48;;;;;;;13.40;7.00;;;;;;;6.95;78.30;99112.75;78457;1298;3026056;-66
2023/01/18 07:59:14;;;;;;;12.20;7.60;;;;;;;7.47;75.73;99113.02;79679;1295;3019011;-66
2023/01/18 08:01:41;;;;;;;15.40;8.90;;;;;;;7.44;75.09;99118.70;79489;1301;3012495;-66
2023/01/18 08:04:09;;;;;;;17.10;9.70;;;;;;;7.37;75.14;99118.41;78469;1301;3026650;-66
2023/01/18 08:06:36;;;;;;;18.80;9.10;;;;;;;7.18;75.85;99125.14;80197;1295;3013146;-67
2023/01/18 08:09:02;;;;;;;15.30;8.80;;;;;;;7.00;76.45;99119.60;79825;1298;3012011;-66
2023/01/18 08:11:31;;;;;;;19.80;10.20;;;;;;;6.88;76.94;99117.30;78647;1293;3028710;-68
2023/01/18 08:13:58;;;;;;;20.00;9.90;;;;;;;6.68;78.12;99117.23;79770;1298;3013682;-66
2023/01/18 08:16:25;;;;;;;17.50;10.70;;;;;;;6.61;78.48;99117.39;79614;1295;3013431;-65
2023/01/18 08:18:54;;;;;;;18.40;9.60;;;;;;;6.49;79.24;99110.67;78501;1296;3050357;-65
2023/01/18 08:21:21;;;;;;;17.20;9.30;;;;;;;6.49;79.46;99118.31;82171;1298;3013208;-66
2023/01/18 08:23:47;;;;;;;14.50;7.20;;;;;;;6.39;80.26;99116.23;82174;1294;3011248;-67
2023/01/18 08:26:15;;;;;;;13.40;7.20;;;;;;;6.98;78.47;99114.16;80865;1294;3052547;-67
2023/01/18 08:28:43;;;;;;;14.90;7.50;;;;;;;7.43;76.25;99114.95;82177;1294;3018810;-68
2023/01/18 08:31:11;;;;;;;16.20;8.80;;;;;;;7.31;75.96;99116.44;82160;1293;3011324;-72
2023/01/18 08:33:44;;;;;;;16.60;9.20;;;;;;;7.33;76.15;99117.55;80878;1294;3048969;-67
2023/01/18 08:36:13;;;;;;;21.50;10.20;;;;;;;7.20;75.96;99110.39;82109;1295;3013149;-68
2023/01/18 08:38:41;;;;;;;19.30;10.10;;;;;;;7.02;76.56;99109.95;80839;1295;3026115;-67
2023/01/18 08:41:07;;;;;;;17.70;9.30;;;;;;;6.78;77.63;99103.35;82124;1295;3018343;-66
2023/01/18 08:43:35;;;;;;;16.30;9.40;;;;;;;6.68;78.18;99102.62;82062;1294;3010953;-69
2023/01/18 08:46:03;;;;;;;20.00;10.40;;;;;;;6.59;78.46;99098.35;80857;1294;3026514;-67
2023/01/18 08:48:29;;;;;;;20.80;10.10;;;;;;;6.49;79.00;99095.90;82146;1294;3012480;-68
2023/01/18 08:51:02;;;;;;;18.60;10.70;;;;;;;6.32;79.75;99091.33;82132;1293;3011204;-68
2023/01/18 08:53:30;;;;;;;20.80;10.60;;;;;;;6.29;80.07;99094.81;80813;1295;3048845;-67
2023/01/18 08:55:57;;;;;;;15.10;6.80;;;;;;;6.32;80.09;99091.50;82134;1295;3018458;-71
2023/01/18 08:58:23;;;;;;;18.10;9.30;;;;;;;6.83;78.95;99099.20;82085;1294;3011226;-69
2023/01/18 09:00:52;;;;;;;20.00;9.20;;;;;;;7.49;76.28;99093.19;80850;1294;3026113;-70
2023/01/18 09:03:21;;;;;;;16.80;9.30;;;;;;;7.54;75.55;99093.10;82142;1295;3012596;-69
2023/01/18 09:05:49;;;;;;;19.30;9.70;;;;;;;7.38;75.90;99097.59;80861;1294;3053009;-67
2023/01/18 09:08:16;;;;;;;17.10;9.10;;;;;;;7.35;76.04;99093.40;82127;1295;3019277;-68
2023/01/18 09:10:43;;;;;;;19.30;9.80;;;;;;;7.34;76.14;99094.67;82111;1294;3011131;-66
2023/01/18 09:13:11;;;;;;;20.30;9.60;;;;;;;7.13;76.92;99097.84;80898;1294;3068476;-69
2023/01/18 09:15:38;;;;;;;21.40;9.90;;;;;;;7.06;77.39;99094.42;82152;1295;3017928;-66
2023/01/18 09:18:05;;;;;;;22.40;11.10;;;;;;;6.76;78.57;99097.14;82136;1293;3011249;-68
2023/01/18 09:20:34;;;;;;;21.70;11.50;;;;;;;6.70;79.01;99092.05;80842;1295;3027418;-65
2023/01/18 09:23:08;;;;;;;22.70;11.20;;;;;;;6.63;79.53;99101.47;82118;1295;3012799;-66
2023/01/18 09:25:39;;;;;;;18.90;10.00;;;;;;;6.59;80.01;99098.18;80844;1295;3052724;-68
2023/01/18 09:28:06;;;;;;;17.60;8.00;;;;;;;6.68;79.71;99106.95;82126;1298;3012571;-68
2023/01/18 09:30:34;;;;;;;21.00;8.80;;;;;;;7.15;78.78;99114.33;82112;1295;3011128;-67
2023/01/18 09:33:02;;;;;;;18.70;10.30;;;;;;;7.50;76.86;99117.36;80857;1295;3047629;-68
2023/01/18 09:35:29;;;;;;;19.70;10.90;;;;;;;7.48;76.93;99108.56;82121;1293;3013274;-69
2023/01/18 09:37:56;;;;;;;22.10;11.30;;;;;;;7.49;77.31;99114.65;82120;1294;3011652;-69
2023/01/18 09:40:40;;;;;;;17.80;9.50;;;;;;;7.04;78.46;99112.98;80842;1298;3052306;-67
2023/01/18 09:43:41;;;;;;;20.40;11.40;;;;;;;6.80;80.43;99096.44;80770;1295;3068981;-67
2023/01/18 09:46:18;;;;;;;19.40;10.70;;;;;;;6.77;80.98;99110.35;80777;1298;3052532;-67
2023/01/18 09:49:15;;;;;;;22.10;11.10;;;;;;;6.62;81.88;99108.50;80851;1295;3056581;-69
2023/01/18 09:52:15;;;;;;;19.70;10.90;;;;;;;6.43;82.52;99111.18;80861;1295;3049833;-68
2023/01/18 09:55:03;;;;;;;18.40;8.50;;;;;;;6.45;82.83;99099.60;80603;1295;3052213;-67
2023/01/18 09:57:55;;;;;;;14.30;7.90;;;;;;;7.07;81.38;99095.41;80788;1295;3049180;-67
2023/01/18 10:00:25;;;;;;;15.70;8.40;;;;;;;7.39;79.31;99099.46;80827;1294;3052322;-68
2023/01/18 10:02:54;;;;;;;20.00;8.90;;;;;;;7.25;79.41;99095.70;82047;1298;3012917;-67
2023/01/18 10:05:25;;;;;;;21.40;10.40;;;;;;;7.07;80.57;99090.55;80814;1295;3068086;-67
2023/01/18 10:08:02;;;;;;;19.80;10.20;;;;;;;6.91;81.66;99095.52;82106;1294;3011350;-66
2023/01/18 10:10:37;;;;;;;21.10;10.00;;;;;;;6.49;84.03;99093.99;80838;1295;3056136;-67
2023/01/18 10:13:34;;;;;;;20.20;10.70;;;;;;;6.46;84.60;99092.39;82029;1296;3011122;-67
2023/01/18 10:16:08;;;;;;;18.60;10.20;;;;;;;6.46;85.09;99084.21;80864;1295;3052214;-69
2023/01/18 10:18:44;;;;;;;;;;;;;;;6.37;85.71;99081.16;81961;1296;3011331;-67
2023/01/18 10:21:21;;;;;;;16.40;7.50;;;;;;;6.86;84.44;99084.99;80837;1295;3052678;-66
2023/01/18 10:24:05;;;;;;;16.30;8.80;;;;;;;7.11;82.82;99082.33;80746;1299;3052361;-71
2023/01/18 10:26:34;;;;;;;18.60;9.10;;;;;;;7.20;82.46;99090.39;80717;1295;3068424;-68
2023/01/18 10:29:11;;;;;;;18.60;10.40;;;;;;;7.16;82.71;99092.49;82019;1294;3018174;-70
2023/01/18 10:32:03;;;;;;;20.70;10.50;;;;;;;6.81;83.99;99086.44;80822;1296;3047591;-67
2023/01/18 10:34:34;;;;;;;19.70;10.00;;;;;;;6.69;84.87;99093.84;80816;1295;3052762;-67
2023/01/18 10:37:21;;;;;;;18.90;10.00;;;;;;;6.42;85.86;99089.45;82087;1296;3011551;-68
2023/01/18 10:39:50;;;;;;;18.50;9.90;;;;;;;6.49;86.14;99086.36;80799;1294;3052439;-65
2023/01/18 10:42:21;;;;;;;12.70;6.70;;;;;;;6.36;87.16;99080.20;82149;1298;3012778;-65
2023/01/18 10:44:49;;;;;;;16.60;7.30;;;;;;;6.86;86.15;99079.37;80869;1293;3051501;-68
2023/01/18 10:47:16;;;;;;;16.00;8.70;;;;;;;7.43;83.56;99074.84;82152;1294;3012712;-67
2023/01/18 10:49:43;;;;;;;16.70;9.40;;;;;;;7.38;82.78;99071.27;82113;1294;3011456;-65
2023/01/18 10:52:30;;;;;;;18.90;10.40;;;;;;;7.13;83.61;99073.31;80852;1298;3026959;-66
2023/01/18 10:55:06;;;;;;;17.50;9.30;;;;;;;7.09;84.33;99071.96;80873;1294;3052333;-66
2023/01/18 10:57:42;;;;;;;17.30;9.60;;;;;;;6.96;84.47;99072.84;80805;1294;3051723;-66
2023/01/18 11:00:32;;;;;;;18.40;9.40;;;;;;;6.76;85.93;99061.62;82053;1297;3011418;-66
2023/01/18 11:03:01;;;;;;;20.30;8.20;;;;;;;6.59;87.34;99070.38;80707;1295;3050938;-66
2023/01/18 11:05:29;;;;;;;13.40;7.70;;;;;;;7.22;86.64;99062.40;82079;1296;3013234;-66
2023/01/18 11:08:30;;;;;;;14.40;7.60;;;;;;;7.39;84.94;99066.72;81449;1295;3011336;-66
2023/01/18 11:11:01;;;;;;;19.80;9.00;;;;;;;7.42;84.82;99065.15;80825;1295;3053231;-67
2023/01/18 11:13:33;;;;;;;17.10;9.40;;;;;;;7.13;85.60;99064.77;82037;1295;3011324;-67
2023/01/18 11:16:16;;;;;;;18.90;8.60;;;;;;;7.00;86.58;99067.05;80812;1294;3051935;-66
2023/01/18 11:18:54;;;;;;;14.90;8.40;;;;;;;6.89;87.15;99067.79;80805;1295;3053475;-66
2023/01/18 11:21:24;;;;;;;17.90;10.20;;;;;;;6.81;88.19;99073.23;80790;1294;3069666;-66
2023/01/18 11:23:50;;;;;;;14.40;6.80;;;;;;;6.75;88.31;99070.08;81935;1295;3012873;-66
2023/01/18 11:26:19;;;;;;;14.00;7.10;;;;;;;7.26;87.19;99072.08;82083;1294;3011362;-66
2023/01/18 11:29:04;;;;;;;15.20;8.30;;;;;;;7.62;85.16;99063.55;80785;1294;3053163;-67
2023/01/18 11:31:53;;;;;;;15.90;8.40;;;;;;;7.87;84.10;99073.19;80701;1300;3050132;-67
2023/01/18 11:34:47;;;;;;;16.30;8.60;;;;;;;7.47;85.06;99069.63;80809;1298;3053247;-66
2023/01/18 11:37:33;;;;;;;14.60;8.20;;;;;;;7.29;85.95;99074.54;80755;1299;3053191;-66
2023/01/18 11:40:21;;;;;;;16.50;9.40;;;;;;;7.07;87.34;99072.59;80851;1295;3069814;-66
2023/01/18 11:42:50;;;;;;;16.20;8.70;;;;;;;6.93;88.61;99074.02;80843;1295;3052264;-67
2023/01/18 11:45:23;;;;;;;12.70;6.40;;;;;;;6.70;90.04;99065.27;82116;1295;3011516;-72
2023/01/18 11:48:25;;;;;;;15.10;6.90;;;;;;;7.42;89.10;99067.26;80796;1295;3053194;-67
2023/01/18 11:50:56;;;;;;;16.10;9.10;;;;;;;7.77;86.01;99060.13;80810;1295;3051345;-66
2023/01/18 11:53:42;;;;;;;25.00;10.20;;;;;;;7.70;85.85;99060.17;82060;1298;3011406;-67
2023/01/18 11:56:13;;;;;;;20.10;10.20;;;;;;;7.44;86.93;99059.65;80806;1295;3052282;-65
2023/01/18 11:58:40;;;;;;;17.70;9.40;;;;;;;7.26;88.14;99061.65;81973;1298;3011749;-66
2023/01/18 12:01:40;;;;;;;19.70;10.00;;;;;;;7.06;89.15;99059.59;80747;1295;3026511;-68
2023/01/18 12:04:35;;;;;;;12.60;6.90;;;;;;;7.19;89.14;99057.67;80796;1298;3056700;-66
2023/01/18 12:07:25;;;;;;;13.70;7.30;;;;;;;7.68;87.49;99052.62;80717;1296;3048716;-67
2023/01/18 12:09:56;;;;;;;15.90;7.90;;;;;;;7.86;86.26;99048.83;80794;1298;3052455;-66
2023/01/18 12:12:38;;;;;;;13.80;7.20;;;;;;;7.88;85.85;99045.02;82007;1295;3013310;-66
2023/01/18 12:15:15;;;;;;;14.20;7.60;;;;;;;7.74;86.30;99040.41;80820;1295;3053376;-71
2023/01/18 12:17:49;;;;;;;16.10;8.90;;;;;;;7.43;87.57;99049.11;80823;1295;3052024;-67
2023/01/18 12:20:37;;;;;;;17.00;9.10;;;;;;;7.26;88.21;99050.48;81508;1297;3011291;-66
2023/01/18 12:23:28;;;;;;;17.00;9.30;;;;;;;7.23;88.52;99051.00;80817;1298;3069299;-67
2023/01/18 12:26:08;;;;;;;14.10;7.00;;;;;;;7.12;88.92;99044.82;80649;1298;3050898;-71
2023/01/18 12:28:47;;;;;;;17.10;7.20;;;;;;;7.74;87.08;99047.40;80802;1295;3055026;-67
2023/01/18 12:31:17;;;;;;;16.00;8.10;;;;;;;8.07;84.74;99041.38;80774;1295;3049008;-68
2023/01/18 12:34:02;;;;;;;15.50;7.90;;;;;;;7.85;84.29;99041.89;82065;1295;3011580;-71
2023/01/18 12:36:36;;;;;;;17.30;9.00;;;;;;;7.59;85.22;99044.02;80671;1295;3051038;-67
2023/01/18 12:39:11;;;;;;;14.70;8.40;;;;;;;7.42;85.79;99039.54;82044;1298;3011355;-69
2023/01/18 12:41:48;;;;;;;17.10;8.60;;;;;;;7.27;86.40;99050.13;80701;1300;3053130;-69
2023/01/18 12:44:25;;;;;;;19.30;9.20;;;;;;;7.13;87.30;99053.15;80801;1294;3068525;-68
2023/01/18 12:47:14;;;;;;;13.40;6.60;;;;;;;6.91;88.32;99051.11;80814;1298;3052167;-68
2023/01/18 12:49:45;;;;;;;12.80;6.50;;;;;;;7.55;86.89;99054.52;80827;1295;3056159;-68
2023/01/18 12:52:13;;;;;;;12.20;7.50;;;;;;;7.87;84.69;99055.58;81994;1295;3011542;-68
2023/01/18 12:54:44;;;;;;;13.70;8.30;;;;;;;7.79;84.52;99058.09;80687;1295;3052677;-70
2023/01/18 12:57:12;;;;;;;16.60;9.10;;;;;;;7.53;85.07;99053.07;82061;1298;3011321;-67
2023/01/18 12:59:44;;;;;;;15.50;8.30;;;;;;;7.38;86.13;99051.08;80760;1298;3027257;-66
2023/01/18 13:02:21;;;;;;;15.50;8.60;;;;;;;7.31;86.50;99051.81;82017;1298;3011829;-67
2023/01/18 13:04:58;;;;;;;20.10;9.20;;;;;;;7.05;87.52;99058.08;80806;1294;3069222;-65
2023/01/18 13:07:31;;;;;;;9.30;5.60;;;;;;;7.03;88.25;99060.97;80741;1298;3051916;-65
2023/01/18 13:09:57;;;;;;;12.70;7.40;;;;;;;7.49;86.89;99057.61;82116;1296;3011174;-67
2023/01/18 13:12:25;;;;;;;12.10;7.10;;;;;;;7.82;84.73;99057.58;80729;1295;3048154;-67
2023/01/18 13:15:13;;;;;;;12.30;7.10;;;;;;;7.85;83.74;99057.95;82026;1296;3012673;-67
2023/01/18 13:17:55;;;;;;;12.70;7.20;;;;;;;7.77;84.12;99058.70;80848;1295;3052523;-67
2023/01/18 13:20:28;;;;;;;13.70;7.80;;;;;;;7.53;84.81;99061.09;80816;1298;3053859;-69
2023/01/18 13:23:15;;;;;;;;;;;;;;;7.31;85.80;99067.66;81970;1298;3011583;-65
2023/01/18 13:25:47;;;;;;;15.50;6.40;;;;;;;7.18;86.54;99066.45;80831;1295;3050365;-68
2023/01/18 13:28:23;;;;;;;18.10;8.30;;;;;;;7.09;87.06;99066.58;82065;1298;3011357;-67
2023/01/18 13:30:55;;;;;;;13.50;6.30;;;;;;;7.00;87.79;99067.00;80708;1295;3048882;-65
2023/01/18 13:33:25;;;;;;;13.60;6.60;;;;;;;7.47;86.97;99062.98;81987;1296;3011301;-68
2023/01/18 13:35:57;;;;;;;12.50;6.90;;;;;;;8.02;84.10;99060.09;80800;1295;3049101;-68
2023/01/18 13:38:24;;;;;;;10.50;7.00;;;;;;;7.94;83.88;99057.79;82048;1295;3011429;-67
2023/01/18 13:40:55;;;;;;;12.50;7.00;;;;;;;7.63;84.78;99061.42;81466;1302;3011812;-66
2023/01/18 13:43:34;;;;;;;17.40;8.30;;;;;;;7.50;85.56;99064.02;81854;1307;3011354;-66
2023/01/18 13:46:19;;;;;;;16.00;7.80;;;;;;;7.35;86.91;99072.52;80687;1300;3052016;-65
2023/01/18 13:48:55;;;;;;;12.90;7.20;;;;;;;7.23;87.00;99070.02;80641;1295;3056607;-67
2023/01/18 13:51:35;;;;;;;9.40;5.40;;;;;;;7.21;87.86;99080.23;80701;1295;3048512;-67
2023/01/18 13:54:03;;;;;;;12.20;6.40;;;;;;;7.67;86.64;99082.96;80684;1295;3052142;-63
2023/01/18 13:56:30;;;;;;;11.80;7.20;;;;;;;8.00;85.29;99079.41;81954;1300;3011378;-63
2023/01/18 13:59:02;;;;;;;14.60;7.30;;;;;;;7.89;84.71;99082.31;81933;1301;3011372;-62
2023/01/18 14:01:33;;;;;;;16.20;6.90;;;;;;;7.62;85.71;99079.58;80673;1295;3067846;-63
2023/01/18 14:04:07;;;;;;;15.40;7.40;;;;;;;7.59;85.78;99079.76;81937;1296;3011372;-62
2023/01/18 14:06:37;;;;;;;15.00;7.70;;;;;;;7.31;86.53;99079.68;80622;1295;3055769;-63
2023/01/18 14:09:08;;;;;;;18.30;8.70;;;;;;;7.11;87.46;99070.11;81890;1295;3011425;-62
2023/01/18 14:11:37;;;;;;;11.70;5.90;;;;;;;6.97;88.16;99070.67;80653;1295;3052201;-62
2023/01/18 14:14:14;;;;;;;11.60;5.80;;;;;;;7.43;87.16;99069.13;81805;1295;3012803;-63
2023/01/18 14:16:58;;;;;;;12.20;6.30;;;;;;;7.70;85.23;99076.20;80663;1297;3052570;-63
2023/01/18 14:19:27;;;;;;;12.90;7.60;;;;;;;7.67;84.55;99079.50;80732;1297;3052892;-63
2023/01/18 14:22:18;;;;;;;17.40;8.00;;;;;;;7.36;85.65;99088.82;81951;1300;3012779;-63
2023/01/18 14:25:23;;;;;;;21.60;8.00;;;;;;;7.31;85.94;99096.27;80706;1295;3056097;-63
2023/01/18 14:28:01;;;;;;;16.40;8.50;;;;;;;7.14;86.71;99093.84;80696;1297;3049941;-62
2023/01/18 14:30:33;;;;;;;14.50;7.90;;;;;;;6.96;87.47;99089.90;80562;1301;3052422;-62
2023/01/18 14:33:16;;;;;;;11.80;6.70;;;;;;;6.89;87.30;99096.14;81951;1295;3011461;-63
2023/01/18 14:35:54;;;;;;;14.20;6.70;;;;;;;7.30;86.40;99094.05;80656;1300;3052501;-63
2023/01/18 14:38:21;;;;;;;12.20;7.10;;;;;;;7.65;84.07;99090.22;80717;1297;3052227;-62
2023/01/18 14:40:52;;;;;;;15.30;8.60;;;;;;;7.49;83.99;99090.06;81909;1301;3011305;-63
2023/01/18 14:43:28;;;;;;;15.80;8.70;;;;;;;7.41;84.07;99090.50;80800;1295;3026249;-63
2023/01/18 14:45:59;;;;;;;17.80;8.50;;;;;;;7.15;85.03;99092.73;80821;1295;3056147;-63
2023/01/18 14:48:33;;;;;;;14.30;7.60;;;;;;;6.82;86.40;99088.30;80764;1295;3048475;-63
2023/01/18 14:51:00;;;;;;;18.80;9.20;;;;;;;6.70;86.90;99097.98;82091;1295;3011335;-62
2023/01/18 14:53:32;;;;;;;14.00;6.50;;;;;;;6.67;87.15;99099.48;81965;1298;3011387;-62
2023/01/18 14:56:20;;;;;;;11.70;5.80;;;;;;;7.14;86.10;99097.67;80753;1298;3052481;-63
2023/01/18 14:58:51;;;;;;;15.80;7.90;;;;;;;7.52;83.48;99103.31;80830;1294;3069027;-63
2023/01/18 15:01:35;;;;;;;17.70;8.40;;;;;;;7.16;84.56;99102.95;82084;1295;3011380;-63
2023/01/18 15:04:04;;;;;;;19.70;9.70;;;;;;;6.97;85.44;99104.27;80818;1295;3056128;-63
2023/01/18 15:06:43;;;;;;;19.80;10.30;;;;;;;6.84;86.08;99100.76;82063;1295;3011357;-62
2023/01/18 15:09:11;;;;;;;17.70;8.90;;;;;;;6.54;86.96;99110.77;80817;1294;3052637;-62
2023/01/18 15:11:38;;;;;;;16.40;9.00;;;;;;;6.54;87.68;99099.66;82106;1294;3018465;-63
2023/01/18 15:14:16;;;;;;;12.30;6.40;;;;;;;6.45;88.40;99114.17;82021;1295;3011515;-62
2023/01/18 15:16:45;;;;;;;14.60;7.10;;;;;;;7.04;87.04;99109.65;80695;1297;3068093;-63
2023/01/18 15:19:15;;;;;;;19.80;7.90;;;;;;;7.37;85.20;99110.91;82041;1295;3013083;-63
2023/01/18 15:21:44;;;;;;;18.60;9.00;;;;;;;7.26;85.19;99111.63;80824;1295;3047882;-63